Time;durP1;ratioP1;P1;durP2;ratioP2;P2;SDS_P1;SDS_P2;PMS_P1;PMS_P2;Temp;Humidity;BMP_temperature;BMP_pressure;BME280_temperature;BME280_humidity;BME280_pressure;Samples;Min_cycle;Max_cycle;Signal;HPM_P1;HPM_P2
2022/07/03 00:01:16;;;;;;;2.73;2.53;;;25.20;48.50;;;;;;5108830;28;20468;-46
2022/07/03 00:03:42;;;;;;;3.00;2.80;;;25.30;48.50;;;;;;5109329;27;20576;-46
2022/07/03 00:06:07;;;;;;;2.90;2.70;;;25.30;48.40;;;;;;5101482;28;20220;-46
2022/07/03 00:08:33;;;;;;;2.63;2.43;;;25.30;48.30;;;;;;5109371;27;20281;-45
2022/07/03 00:10:59;;;;;;;2.57;2.37;;;25.30;48.30;;;;;;5113139;27;20699;-46
2022/07/03 00:13:25;;;;;;;2.70;2.50;;;25.20;48.30;;;;;;5112672;28;20190;-45
2022/07/03 00:15:50;;;;;;;3.20;2.27;;;25.30;48.40;;;;;;5098559;28;21284;-45
2022/07/03 00:18:16;;;;;;;2.60;2.40;;;25.30;48.50;;;;;;5097141;28;20663;-45
2022/07/03 00:20:48;;;;;;;2.53;2.33;;;25.40;48.30;;;;;;5118370;28;20190;-47
2022/07/03 00:23:16;;;;;;;2.70;2.50;;;25.40;47.90;;;;;;5097999;28;20564;-45
2022/07/03 00:25:43;;;;;;;4.00;2.60;;;25.50;47.90;;;;;;5104922;28;20443;-45
2022/07/03 00:28:09;;;;;;;3.93;2.27;;;25.60;47.70;;;;;;5102278;28;20443;-45
2022/07/03 00:30:35;;;;;;;5.70;3.93;;;25.60;47.60;;;;;;5118939;28;20475;-45
2022/07/03 00:33:03;;;;;;;3.00;2.80;;;25.60;47.50;;;;;;5100210;28;20977;-45
2022/07/03 00:35:31;;;;;;;2.63;2.30;;;25.50;47.30;;;;;;5101523;28;20440;-45
2022/07/03 00:37:57;;;;;;;2.53;2.33;;;25.40;48.00;;;;;;5107839;28;20445;-46
2022/07/03 00:40:24;;;;;;;2.60;2.50;;;25.40;47.80;;;;;;5104488;28;20531;-47
2022/07/03 00:42:53;;;;;;;2.53;2.37;;;25.30;48.20;;;;;;5107856;28;20973;-45
2022/07/03 00:45:22;;;;;;;2.57;2.40;;;25.30;48.20;;;;;;5110648;28;20435;-45
2022/07/03 00:47:48;;;;;;;2.37;2.17;;;25.40;47.90;;;;;;5117263;28;20500;-45
2022/07/03 00:50:14;;;;;;;5.77;2.60;;;25.40;47.90;;;;;;5105503;28;22503;-45
2022/07/03 00:52:46;;;;;;;4.27;2.50;;;25.50;47.60;;;;;;5103690;28;20433;-45
2022/07/03 00:55:16;;;;;;;3.20;2.53;;;25.50;47.50;;;;;;5120445;28;20188;-45
2022/07/03 00:57:47;;;;;;;3.10;2.80;;;25.60;47.30;;;;;;5119351;28;20457;-45
2022/07/03 01:00:17;;;;;;;6.20;2.83;;;25.40;47.10;;;;;;5103175;28;20437;-46
2022/07/03 01:03:00;;;;;;;4.13;2.93;;;25.40;47.50;;;;;;5120742;27;21060;-45
2022/07/03 01:05:50;;;;;;;5.90;3.50;;;25.40;47.30;;;;;;5117407;27;20500;-46
2022/07/03 01:08:34;;;;;;;4.37;3.93;;;25.40;47.60;;;;;;5103358;27;21195;-45
2022/07/03 01:11:05;;;;;;;3.53;3.17;;;25.30;47.60;;;;;;5091294;27;20545;-46
2022/07/03 01:14:12;;;;;;;3.00;2.70;;;25.20;48.00;;;;;;5098100;27;20805;-45
2022/07/03 01:16:47;;;;;;;2.90;2.33;;;25.20;48.00;;;;;;5089161;27;20473;-45
2022/07/03 01:19:43;;;;;;;2.60;2.40;;;24.90;48.50;;;;;;5107827;27;20527;-45
2022/07/03 01:22:23;;;;;;;2.70;2.50;;;24.80;48.80;;;;;;5108411;27;20494;-45
2022/07/03 01:25:10;;;;;;;2.60;2.40;;;24.80;48.80;;;;;;5125017;27;20450;-45
2022/07/03 01:28:06;;;;;;;2.57;2.37;;;24.90;48.80;;;;;;5115769;27;20927;-47
2022/07/03 01:30:34;;;;;;;3.10;2.33;;;24.90;48.50;;;;;;5113817;27;20505;-45
2022/07/03 01:33:29;;;;;;;3.30;2.30;;;24.90;48.50;;;;;;5116450;27;20437;-45
2022/07/03 01:36:01;;;;;;;9.00;3.00;;;24.90;48.70;;;;;;5113763;27;20469;-46
2022/07/03 01:38:28;;;;;;;2.27;2.13;;;24.80;48.90;;;;;;5108505;27;20500;-46
2022/07/03 01:40:55;;;;;;;3.10;2.37;;;24.70;49.20;;;;;;5126817;27;20443;-45
2022/07/03 01:43:29;;;;;;;3.27;2.97;;;24.50;49.70;;;;;;5105585;27;20533;-47
2022/07/03 01:45:59;;;;;;;2.90;2.70;;;24.50;49.80;;;;;;5104956;27;20942;-45
2022/07/03 01:48:27;;;;;;;3.03;2.83;;;24.50;50.60;;;;;;5100169;27;20440;-45
2022/07/03 01:50:54;;;;;;;5.70;2.50;;;24.50;49.60;;;;;;5105888;27;20805;-45
2022/07/03 01:53:22;;;;;;;3.07;2.73;;;24.50;49.70;;;;;;5117998;27;20435;-45
2022/07/03 01:55:50;;;;;;;3.00;2.80;;;24.50;49.70;;;;;;5122558;27;20447;-45
2022/07/03 01:58:15;;;;;;;2.90;2.70;;;24.50;49.70;;;;;;5112928;27;20523;-46
2022/07/03 02:00:55;;;;;;;2.90;2.70;;;24.40;49.80;;;;;;5110792;27;20492;-46
2022/07/03 02:03:32;;;;;;;2.73;2.53;;;24.40;50.40;;;;;;5110433;27;20625;-47
2022/07/03 02:06:20;;;;;;;3.00;2.80;;;24.40;50.00;;;;;;5111897;27;20471;-46
2022/07/03 02:09:00;;;;;;;2.67;2.47;;;24.20;50.50;;;;;;5114092;27;20440;-46
2022/07/03 02:11:32;;;;;;;2.80;2.60;;;24.20;50.20;;;;;;5114066;27;20439;-47
2022/07/03 02:14:16;;;;;;;2.80;2.47;;;24.30;50.50;;;;;;5117640;27;20482;-45
2022/07/03 02:17:05;;;;;;;2.60;2.40;;;24.30;50.00;;;;;;5112177;27;20448;-49
2022/07/03 02:19:55;;;;;;;3.03;2.83;;;24.40;50.10;;;;;;5114598;27;20452;-46
2022/07/03 02:22:27;;;;;;;3.00;2.70;;;24.40;49.90;;;;;;5110064;27;20495;-45
2022/07/03 02:24:59;;;;;;;3.20;2.90;;;24.40;49.80;;;;;;5112033;28;20927;-46
2022/07/03 02:27:28;;;;;;;2.93;2.73;;;24.50;50.10;;;;;;5112266;27;20424;-50
2022/07/03 02:30:04;;;;;;;3.40;3.03;;;24.50;50.00;;;;;;5111770;27;20447;-50
2022/07/03 02:32:35;;;;;;;5.70;2.70;;;24.50;49.50;;;;;;5113416;27;20439;-46
2022/07/03 02:35:05;;;;;;;2.97;2.43;;;24.50;49.90;;;;;;5118564;27;20931;-49
2022/07/03 02:37:38;;;;;;;3.20;2.50;;;24.50;49.70;;;;;;5111408;27;20532;-49
2022/07/03 02:40:06;;;;;;;3.03;2.50;;;24.50;49.80;;;;;;5116782;27;20808;-45
2022/07/03 02:43:03;;;;;;;4.70;2.67;;;24.50;49.60;;;;;;5108905;27;20476;-49
2022/07/03 02:45:38;;;;;;;2.90;2.70;;;24.50;49.80;;;;;;5081300;27;20454;-47
2022/07/03 02:48:24;;;;;;;2.40;2.30;;;24.30;49.90;;;;;;5113043;27;20940;-48
2022/07/03 02:50:55;;;;;;;2.97;2.77;;;24.40;50.10;;;;;;5117567;27;20444;-45
2022/07/03 02:53:37;;;;;;;3.47;3.10;;;24.30;50.10;;;;;;5111796;27;20813;-48
2022/07/03 02:56:10;;;;;;;4.67;2.70;;;24.30;50.40;;;;;;5113804;27;20946;-46
2022/07/03 02:58:53;;;;;;;2.60;2.40;;;24.20;50.50;;;;;;5111304;27;20452;-45
2022/07/03 03:01:35;;;;;;;3.40;2.90;;;24.20;50.60;;;;;;5121446;27;20463;-45
2022/07/03 03:04:09;;;;;;;3.27;2.97;;;24.20;50.60;;;;;;5124595;27;20970;-49
2022/07/03 03:06:36;;;;;;;3.10;2.80;;;24.10;50.50;;;;;;5119332;27;20542;-48
2022/07/03 03:09:12;;;;;;;4.07;3.50;;;24.10;50.40;;;;;;5110193;27;20437;-48
2022/07/03 03:11:43;;;;;;;2.83;2.63;;;24.10;50.60;;;;;;5112266;27;20460;-46
2022/07/03 03:14:13;;;;;;;3.60;3.17;;;24.00;50.60;;;;;;5110596;27;20497;-46
2022/07/03 03:16:48;;;;;;;2.87;2.67;;;24.00;50.70;;;;;;5126893;27;20454;-47
2022/07/03 03:19:14;;;;;;;3.00;2.50;;;24.10;50.80;;;;;;5103367;27;20435;-49
2022/07/03 03:21:57;;;;;;;2.63;2.43;;;24.10;50.50;;;;;;5106585;27;20437;-45
2022/07/03 03:24:24;;;;;;;2.60;2.40;;;24.00;50.80;;;;;;5098368;27;20546;-46
2022/07/03 03:26:50;;;;;;;2.53;2.40;;;24.00;50.80;;;;;;5119006;27;20435;-49
2022/07/03 03:29:16;;;;;;;3.93;2.60;;;24.00;50.60;;;;;;5117830;27;20455;-46
2022/07/03 03:31:41;;;;;;;2.63;2.43;;;24.10;50.60;;;;;;5111479;27;20182;-48
2022/07/03 03:34:09;;;;;;;3.20;2.50;;;24.10;50.90;;;;;;5112747;27;20649;-49
2022/07/03 03:36:35;;;;;;;4.07;2.60;;;24.10;50.60;;;;;;5109544;27;20564;-45
2022/07/03 03:39:00;;;;;;;4.47;2.60;;;24.10;50.60;;;;;;5110244;27;20441;-46
2022/07/03 03:41:26;;;;;;;3.00;2.80;;;24.00;50.70;;;;;;5105441;27;20860;-49
2022/07/03 03:43:52;;;;;;;3.77;2.63;;;24.00;50.90;;;;;;5110079;27;20233;-46
2022/07/03 03:46:18;;;;;;;3.73;3.00;;;23.90;51.10;;;;;;5103480;27;20806;-49
2022/07/03 03:48:43;;;;;;;2.33;2.17;;;24.00;51.20;;;;;;5096967;27;20190;-46
2022/07/03 03:51:10;;;;;;;2.80;2.60;;;24.00;51.00;;;;;;5101887;27;20194;-46
2022/07/03 03:53:35;;;;;;;2.87;2.67;;;24.00;51.00;;;;;;5090362;27;20278;-49
2022/07/03 03:56:02;;;;;;;3.10;2.60;;;24.00;51.00;;;;;;5110988;27;20530;-46
2022/07/03 03:58:30;;;;;;;2.80;2.60;;;24.00;51.00;;;;;;5120425;27;20676;-48
2022/07/03 04:00:57;;;;;;;2.70;2.50;;;24.00;50.70;;;;;;5106419;27;20468;-47
2022/07/03 04:03:23;;;;;;;2.33;2.07;;;24.10;50.70;;;;;;5107717;27;20579;-46
2022/07/03 04:05:49;;;;;;;2.50;2.30;;;24.00;50.70;;;;;;5100380;28;20855;-48
2022/07/03 04:08:15;;;;;;;2.80;2.60;;;24.10;51.00;;;;;;5100276;28;20468;-45
2022/07/03 04:10:40;;;;;;;2.77;2.57;;;24.00;51.20;;;;;;5103374;28;20260;-50
2022/07/03 04:13:06;;;;;;;2.77;2.57;;;24.00;50.90;;;;;;5112263;27;20821;-46
2022/07/03 04:15:31;;;;;;;4.17;2.57;;;24.10;50.90;;;;;;5112830;28;20197;-49
2022/07/03 04:17:57;;;;;;;6.37;2.53;;;24.00;50.90;;;;;;5108056;28;20196;-49
2022/07/03 04:20:23;;;;;;;2.90;2.37;;;24.00;50.90;;;;;;5113686;28;20234;-46
2022/07/03 04:22:50;;;;;;;3.03;2.10;;;24.00;51.00;;;;;;5098814;28;20218;-47
2022/07/03 04:25:19;;;;;;;3.10;2.90;;;24.00;51.20;;;;;;5099192;28;20620;-49
2022/07/03 04:27:44;;;;;;;2.80;2.17;;;24.00;51.40;;;;;;5087839;28;20452;-49
2022/07/03 04:30:11;;;;;;;7.30;2.80;;;24.10;51.40;;;;;;5092030;28;20436;-50
2022/07/03 04:32:37;;;;;;;2.30;2.10;;;24.10;51.30;;;;;;5107708;28;20229;-48
2022/07/03 04:35:03;;;;;;;2.40;2.30;;;24.30;51.20;;;;;;5113354;27;20486;-45
2022/07/03 04:37:29;;;;;;;3.10;2.40;;;24.30;50.90;;;;;;5120676;27;20446;-46
2022/07/03 04:39:54;;;;;;;2.60;2.40;;;24.40;50.80;;;;;;5124905;27;20443;-47
2022/07/03 04:42:20;;;;;;;2.70;2.50;;;24.50;50.60;;;;;;5114110;27;20225;-49
2022/07/03 04:44:46;;;;;;;2.47;2.27;;;24.50;50.60;;;;;;5123222;27;20558;-45
2022/07/03 04:47:12;;;;;;;2.67;2.20;;;24.60;50.50;;;;;;5105107;27;20641;-48
2022/07/03 04:49:38;;;;;;;4.57;2.03;;;24.60;50.40;;;;;;5092104;27;20183;-47
2022/07/03 04:52:04;;;;;;;2.70;2.50;;;24.70;50.40;;;;;;5097787;27;20992;-50
2022/07/03 04:54:29;;;;;;;2.60;2.40;;;24.70;50.40;;;;;;5101590;27;20281;-47
2022/07/03 04:56:55;;;;;;;2.70;2.50;;;24.80;50.40;;;;;;5096888;28;21054;-49
2022/07/03 04:59:21;;;;;;;2.37;2.17;;;24.80;50.20;;;;;;5113012;27;20264;-48
2022/07/03 05:01:49;;;;;;;2.70;2.50;;;24.90;50.20;;;;;;5112697;27;20234;-48
2022/07/03 05:04:15;;;;;;;2.60;2.33;;;24.90;50.10;;;;;;5112905;27;20214;-46
2022/07/03 05:06:41;;;;;;;3.07;2.20;;;25.00;50.10;;;;;;5110494;27;21466;-50
2022/07/03 05:09:06;;;;;;;7.03;4.20;;;25.00;49.90;;;;;;5102756;27;20444;-49
2022/07/03 05:11:32;;;;;;;2.70;2.50;;;25.10;50.40;;;;;;5122705;27;20189;-48
2022/07/03 05:13:57;;;;;;;3.27;2.97;;;25.20;49.80;;;;;;5110689;27;20197;-46
2022/07/03 05:16:23;;;;;;;3.00;2.70;;;25.20;49.90;;;;;;5115720;27;20270;-49
2022/07/03 05:18:49;;;;;;;10.90;3.07;;;25.20;50.00;;;;;;5121841;27;20204;-49
2022/07/03 05:21:14;;;;;;;4.43;3.30;;;25.20;50.40;;;;;;5112555;27;20205;-46
2022/07/03 05:23:40;;;;;;;3.20;2.90;;;25.20;50.20;;;;;;5103297;27;20227;-45
2022/07/03 05:26:05;;;;;;;4.90;2.73;;;25.20;50.40;;;;;;5110049;27;20187;-46
2022/07/03 05:28:31;;;;;;;6.03;2.90;;;25.30;50.40;;;;;;5117567;27;20242;-45
2022/07/03 05:30:57;;;;;;;3.78;2.58;;;25.40;50.50;;;;;;5108770;27;20545;-47
2022/07/03 05:33:22;;;;;;;5.30;2.60;;;25.40;50.30;;;;;;5104131;27;20200;-47
2022/07/03 05:35:48;;;;;;;6.83;2.50;;;25.40;50.20;;;;;;5114380;27;20224;-44
2022/07/03 05:39:31;;;;;;;3.97;2.37;;;25.50;50.00;;;;;;5120828;27;20231;-47
2022/07/03 05:40:59;;;;;;;2.30;2.10;;;25.60;50.00;;;;;;5122113;27;20277;-46
2022/07/03 05:43:25;;;;;;;3.10;2.83;;;25.60;49.80;;;;;;5124266;27;21128;-46
2022/07/03 05:45:50;;;;;;;4.47;2.00;;;25.70;49.80;;;;;;5122347;27;20193;-47
2022/07/03 05:48:16;;;;;;;2.13;1.80;;;25.70;49.70;;;;;;5119628;27;20658;-48
2022/07/03 05:50:42;;;;;;;2.40;2.10;;;25.70;49.70;;;;;;5124717;27;20217;-47
2022/07/03 05:53:07;;;;;;;2.40;2.20;;;25.70;50.50;;;;;;5113960;27;21537;-47
2022/07/03 05:55:33;;;;;;;2.33;2.10;;;25.60;50.40;;;;;;5121276;27;20187;-48
2022/07/03 05:57:58;;;;;;;2.23;2.10;;;25.60;50.90;;;;;;5119478;27;20194;-47
2022/07/03 06:00:24;;;;;;;2.40;2.30;;;25.40;51.20;;;;;;5120342;27;20192;-45
2022/07/03 06:02:50;;;;;;;2.50;2.30;;;25.50;50.90;;;;;;5120784;27;20667;-46
2022/07/03 06:05:15;;;;;;;2.10;2.00;;;25.40;51.30;;;;;;5111188;27;20199;-47
2022/07/03 06:07:41;;;;;;;2.37;2.20;;;25.50;51.00;;;;;;5118069;27;20247;-48
2022/07/03 06:10:07;;;;;;;2.83;2.63;;;25.70;50.80;;;;;;5122958;27;20186;-48
2022/07/03 06:12:33;;;;;;;3.70;2.77;;;25.70;51.30;;;;;;5119131;27;20199;-47
2022/07/03 06:14:59;;;;;;;3.67;2.17;;;25.60;51.40;;;;;;5113027;28;20423;-48
2022/07/03 06:17:24;;;;;;;3.43;2.20;;;25.40;52.10;;;;;;5117691;27;20191;-47
2022/07/03 06:19:50;;;;;;;2.23;2.03;;;25.20;52.60;;;;;;5116121;27;20634;-47
2022/07/03 06:22:15;;;;;;;2.30;2.13;;;25.10;52.80;;;;;;5111038;27;20214;-45
2022/07/03 06:24:41;;;;;;;2.43;1.90;;;25.10;52.80;;;;;;5115685;27;20195;-48
2022/07/03 06:27:06;;;;;;;2.33;2.00;;;25.20;52.70;;;;;;5112559;28;20186;-43
2022/07/03 06:29:32;;;;;;;2.97;2.27;;;25.30;52.40;;;;;;5113431;28;20195;-44
2022/07/03 06:31:58;;;;;;;2.00;1.87;;;25.20;52.70;;;;;;5111482;28;20552;-44
2022/07/03 06:34:23;;;;;;;2.43;2.23;;;25.20;53.20;;;;;;5110171;27;20191;-44
2022/07/03 06:36:49;;;;;;;2.03;1.93;;;25.30;53.40;;;;;;5112268;27;20197;-44
2022/07/03 06:39:14;;;;;;;2.13;2.03;;;25.30;52.90;;;;;;5110322;27;20295;-44
2022/07/03 06:41:40;;;;;;;2.40;2.20;;;25.40;53.30;;;;;;5113558;27;20190;-45
2022/07/03 06:44:06;;;;;;;2.17;1.97;;;25.70;52.30;;;;;;5120171;27;20308;-44
2022/07/03 06:46:31;;;;;;;2.17;2.00;;;25.70;52.00;;;;;;5117243;27;20194;-44
2022/07/03 06:48:57;;;;;;;2.13;2.03;;;25.90;51.90;;;;;;5128048;27;20186;-46
2022/07/03 06:51:22;;;;;;;7.90;2.10;;;26.10;51.60;;;;;;5114484;27;20191;-44
2022/07/03 06:53:48;;;;;;;2.43;2.23;;;26.30;51.00;;;;;;5113853;27;20315;-44
2022/07/03 06:56:14;;;;;;;2.13;2.03;;;26.00;51.50;;;;;;5110452;27;20245;-44
2022/07/03 06:58:39;;;;;;;1.97;1.87;;;25.90;52.10;;;;;;5119626;27;20307;-45
2022/07/03 07:01:05;;;;;;;2.30;1.80;;;25.90;52.00;;;;;;5107985;27;20335;-44
2022/07/03 07:03:30;;;;;;;2.30;2.10;;;25.90;52.20;;;;;;5124199;27;20225;-46
2022/07/03 07:05:56;;;;;;;2.73;1.77;;;26.20;51.90;;;;;;5120786;27;20191;-44
2022/07/03 07:08:21;;;;;;;2.00;1.90;;;26.60;51.30;;;;;;5110698;27;20191;-44
2022/07/03 07:10:47;;;;;;;2.67;2.20;;;26.80;50.60;;;;;;5118481;27;20557;-44
2022/07/03 07:13:13;;;;;;;2.50;2.40;;;27.10;50.00;;;;;;5115457;27;20191;-44
2022/07/03 07:15:38;;;;;;;2.00;1.90;;;27.20;49.70;;;;;;5110888;27;20233;-44
2022/07/03 07:18:04;;;;;;;4.40;2.20;;;27.40;49.30;;;;;;5122941;27;20187;-44
2022/07/03 07:20:30;;;;;;;2.20;2.00;;;27.60;47.90;;;;;;5122606;27;20277;-45
2022/07/03 07:22:55;;;;;;;3.47;1.90;;;27.80;47.50;;;;;;5112092;27;20323;-45
2022/07/03 07:25:21;;;;;;;1.93;1.83;;;27.90;46.70;;;;;;5115863;27;20193;-45
2022/07/03 07:27:47;;;;;;;1.80;1.70;;;28.00;46.90;;;;;;5099667;27;20638;-44
2022/07/03 07:30:13;;;;;;;1.90;1.77;;;27.90;46.70;;;;;;5108151;27;20199;-44
2022/07/03 07:32:38;;;;;;;4.10;1.93;;;27.60;47.50;;;;;;5105636;28;20492;-44
2022/07/03 07:35:05;;;;;;;5.10;3.27;;;27.70;46.90;;;;;;5117631;27;20186;-45
2022/07/03 07:37:31;;;;;;;1.97;1.83;;;27.90;47.20;;;;;;5106371;27;20199;-45
2022/07/03 07:39:56;;;;;;;1.83;1.73;;;28.30;46.90;;;;;;5114740;27;20455;-44
2022/07/03 07:42:24;;;;;;;2.17;1.97;;;28.40;46.20;;;;;;5123024;27;20213;-47
2022/07/03 07:44:49;;;;;;;2.00;1.90;;;28.70;46.40;;;;;;5106599;27;20746;-48
2022/07/03 07:47:15;;;;;;;1.73;1.63;;;28.90;45.70;;;;;;5106289;28;20460;-45
2022/07/03 07:49:41;;;;;;;1.80;1.70;;;29.10;45.20;;;;;;5113220;27;20275;-46
2022/07/03 07:52:07;;;;;;;1.70;1.60;;;29.20;45.30;;;;;;5108466;27;20672;-45
2022/07/03 07:54:32;;;;;;;1.93;1.83;;;29.40;44.60;;;;;;5118024;27;20199;-45
2022/07/03 07:56:58;;;;;;;2.33;1.50;;;29.50;44.40;;;;;;5109079;27;20660;-46
2022/07/03 07:59:24;;;;;;;1.70;1.60;;;29.40;44.30;;;;;;5117389;27;20195;-45
2022/07/03 08:07:18;;;;;;;2.70;2.07;;;30.10;42.20;;;;;;5110858;28;20432;-44
2022/07/03 08:09:43;;;;;;;2.00;1.80;;;30.30;42.80;;;;;;5110568;28;20919;-46
2022/07/03 08:12:09;;;;;;;1.90;1.77;;;30.50;42.50;;;;;;5113794;27;20191;-45
2022/07/03 08:14:35;;;;;;;1.70;1.60;;;30.60;41.20;;;;;;5111012;28;20183;-47
2022/07/03 08:17:00;;;;;;;2.13;1.40;;;30.70;40.80;;;;;;5116919;28;20238;-45
2022/07/03 08:19:26;;;;;;;2.60;1.50;;;30.70;41.40;;;;;;5110798;28;20277;-45
2022/07/03 08:21:52;;;;;;;1.57;1.47;;;30.80;41.10;;;;;;5111721;28;20197;-44
2022/07/03 08:24:17;;;;;;;1.73;1.63;;;30.90;40.90;;;;;;5109734;28;20349;-44
2022/07/03 08:26:43;;;;;;;1.43;1.33;;;30.80;40.30;;;;;;5109605;28;20214;-47
2022/07/03 08:29:09;;;;;;;2.90;1.60;;;31.00;40.10;;;;;;5110602;28;20189;-44
2022/07/03 08:31:35;;;;;;;2.00;1.80;;;31.00;39.90;;;;;;5113932;28;20271;-45
2022/07/03 08:34:00;;;;;;;1.60;1.50;;;31.10;39.90;;;;;;5110062;28;20428;-45
2022/07/03 08:36:26;;;;;;;3.43;1.60;;;31.40;40.40;;;;;;5110830;28;20872;-45
2022/07/03 08:38:51;;;;;;;1.70;1.60;;;31.60;38.30;;;;;;5110229;28;20564;-47
2022/07/03 08:41:18;;;;;;;1.80;1.67;;;31.60;38.50;;;;;;5110573;28;20218;-46
2022/07/03 08:43:45;;;;;;;2.30;1.50;;;31.60;38.10;;;;;;5109370;28;20229;-46
2022/07/03 08:46:11;;;;;;;1.80;1.47;;;31.60;38.10;;;;;;5116567;28;20781;-45
2022/07/03 08:48:37;;;;;;;1.73;1.63;;;31.50;38.30;;;;;;5110306;28;20497;-45
2022/07/03 08:51:03;;;;;;;1.43;1.33;;;31.70;38.50;;;;;;5109499;28;20206;-45
2022/07/03 08:53:29;;;;;;;2.80;1.40;;;31.80;37.80;;;;;;5108394;28;20424;-46
2022/07/03 08:55:55;;;;;;;1.53;1.20;;;31.90;36.90;;;;;;5110464;28;20240;-45
2022/07/03 08:58:25;;;;;;;1.33;1.20;;;32.00;36.20;;;;;;5110162;28;20508;-45
2022/07/03 09:00:52;;;;;;;3.33;1.70;;;32.00;35.60;;;;;;5110936;28;20967;-47
2022/07/03 09:03:22;;;;;;;1.50;1.40;;;32.20;35.40;;;;;;5110044;28;20851;-44
2022/07/03 09:05:49;;;;;;;2.40;1.43;;;32.20;35.30;;;;;;5110153;28;20431;-45
2022/07/03 09:08:16;;;;;;;1.60;1.50;;;32.30;35.90;;;;;;5110862;28;20512;-46
2022/07/03 09:10:44;;;;;;;1.23;1.13;;;32.50;34.50;;;;;;5109391;28;20444;-45
2022/07/03 09:13:11;;;;;;;2.40;1.60;;;32.50;34.20;;;;;;5115037;28;20444;-45
2022/07/03 09:15:37;;;;;;;1.73;1.30;;;32.60;34.70;;;;;;5109998;28;20441;-47
2022/07/03 09:18:06;;;;;;;1.30;1.20;;;32.70;33.40;;;;;;5103891;28;20441;-45
2022/07/03 09:20:33;;;;;;;1.57;1.10;;;32.70;33.00;;;;;;5108389;28;20428;-45
2022/07/03 09:23:12;;;;;;;1.53;1.20;;;32.80;32.50;;;;;;5119454;27;20884;-47
2022/07/03 09:25:58;;;;;;;1.20;1.10;;;33.00;32.70;;;;;;5115764;27;20454;-45
2022/07/03 09:28:44;;;;;;;1.77;1.20;;;32.70;32.90;;;;;;5103223;27;20448;-44
2022/07/03 09:31:17;;;;;;;1.37;1.27;;;32.80;32.20;;;;;;5112176;27;20472;-44
2022/07/03 09:33:55;;;;;;;1.07;1.07;;;32.90;31.50;;;;;;5108389;27;20848;-44
2022/07/03 09:36:41;;;;;;;1.50;1.40;;;33.20;30.50;;;;;;5111731;27;20451;-44
2022/07/03 09:39:20;;;;;;;1.83;1.60;;;33.30;30.30;;;;;;5106857;27;21003;-44
2022/07/03 09:41:56;;;;;;;1.47;1.10;;;33.40;29.70;;;;;;5118035;27;20447;-43
2022/07/03 09:44:35;;;;;;;1.77;1.10;;;33.50;30.30;;;;;;5116145;27;20891;-44
2022/07/03 09:47:14;;;;;;;0.90;0.90;;;33.50;30.50;;;;;;5117828;27;20444;-43
2022/07/03 09:49:55;;;;;;;4.30;1.27;;;33.60;30.00;;;;;;5116314;27;20440;-43
2022/07/03 09:52:36;;;;;;;1.00;1.00;;;33.70;29.90;;;;;;5119938;27;20443;-44
2022/07/03 09:55:08;;;;;;;1.50;1.00;;;33.90;29.90;;;;;;5100342;27;20962;-43
2022/07/03 09:57:34;;;;;;;1.30;1.20;;;33.90;30.00;;;;;;5111568;27;20460;-43
2022/07/03 10:00:13;;;;;;;1.03;1.03;;;33.70;29.50;;;;;;5108359;27;20444;-44
2022/07/03 10:03:04;;;;;;;1.27;1.00;;;33.90;29.20;;;;;;5118680;27;20521;-43
2022/07/03 10:05:31;;;;;;;2.17;1.50;;;33.90;29.00;;;;;;5116999;27;20441;-43
2022/07/03 10:08:07;;;;;;;1.27;1.17;;;33.80;29.00;;;;;;5114832;27;20440;-43
2022/07/03 10:10:35;;;;;;;1.33;1.20;;;33.70;29.20;;;;;;5112083;27;20861;-43
2022/07/03 10:13:02;;;;;;;1.90;1.20;;;33.70;28.90;;;;;;5110478;27;20451;-43
2022/07/03 10:15:30;;;;;;;1.90;1.40;;;33.90;28.70;;;;;;5120318;27;20447;-43
2022/07/03 10:17:57;;;;;;;1.17;1.10;;;34.20;28.70;;;;;;5107773;27;20428;-43
2022/07/03 10:20:34;;;;;;;1.40;1.30;;;34.50;28.80;;;;;;5122019;27;20444;-43
2022/07/03 10:23:00;;;;;;;1.50;1.40;;;34.60;28.90;;;;;;5120511;27;20483;-44
2022/07/03 10:25:26;;;;;;;0.80;0.80;;;34.80;29.40;;;;;;5114846;27;20967;-43
2022/07/03 10:27:52;;;;;;;1.80;1.23;;;34.80;28.40;;;;;;5114350;27;20455;-44
2022/07/03 10:30:20;;;;;;;3.47;1.10;;;34.80;28.30;;;;;;5115000;27;20732;-43
2022/07/03 10:32:48;;;;;;;1.13;1.07;;;35.00;27.70;;;;;;5119648;27;20603;-43
2022/07/03 10:35:43;;;;;;;1.40;1.30;;;35.00;27.80;;;;;;5121814;27;20440;-43
2022/07/03 10:38:16;;;;;;;1.20;1.10;;;35.10;27.70;;;;;;5127896;27;20443;-43
2022/07/03 10:46:30;;;;;;;2.03;1.40;;;35.60;28.60;;;;;;5116530;27;20535;-44
2022/07/03 10:48:58;;;;;;;2.00;1.50;;;35.60;27.50;;;;;;5116319;27;20522;-45
2022/07/03 10:51:25;;;;;;;1.63;1.53;;;35.70;27.60;;;;;;5112412;27;20561;-45
2022/07/03 10:54:11;;;;;;;1.33;1.23;;;35.80;27.60;;;;;;5110936;27;20499;-46
2022/07/03 10:57:00;;;;;;;1.43;1.33;;;36.00;27.90;;;;;;5088886;27;20444;-47
2022/07/03 10:59:32;;;;;;;2.70;1.33;;;36.30;27.80;;;;;;5085978;27;20449;-46
2022/07/03 11:02:23;;;;;;;1.13;1.03;;;36.40;27.10;;;;;;5102448;27;20483;-45
2022/07/03 11:05:01;;;;;;;1.03;1.03;;;36.50;27.40;;;;;;5107536;27;20970;-45
2022/07/03 11:07:27;;;;;;;1.30;1.20;;;36.70;27.00;;;;;;5109102;27;20447;-46
2022/07/03 11:10:16;;;;;;;1.20;1.10;;;36.70;26.80;;;;;;5114559;27;20506;-45
2022/07/03 11:13:03;;;;;;;1.67;1.57;;;36.80;26.60;;;;;;5081373;28;20852;-45
2022/07/03 11:15:29;;;;;;;1.40;1.30;;;37.10;26.80;;;;;;5107293;27;20452;-45
2022/07/03 11:18:16;;;;;;;1.77;1.43;;;37.20;26.50;;;;;;5120149;27;20432;-46
2022/07/03 11:20:42;;;;;;;1.10;1.10;;;37.20;25.60;;;;;;5104678;27;20641;-47
2022/07/03 11:23:10;;;;;;;1.47;1.37;;;37.20;26.60;;;;;;5107743;27;20525;-47
2022/07/03 11:25:40;;;;;;;2.10;1.37;;;37.20;26.20;;;;;;5112658;27;20186;-46
2022/07/03 11:28:07;;;;;;;3.40;1.40;;;37.40;26.20;;;;;;5110610;28;20432;-45
2022/07/03 11:30:33;;;;;;;5.13;1.20;;;37.30;26.10;;;;;;5105227;27;20443;-45
2022/07/03 11:33:00;;;;;;;1.47;1.10;;;37.00;25.50;;;;;;5111926;27;20438;-48
2022/07/03 11:35:48;;;;;;;1.83;1.20;;;37.00;25.90;;;;;;5110565;27;20482;-46
2022/07/03 11:38:31;;;;;;;1.47;1.37;;;37.00;26.20;;;;;;5106116;27;20476;-48
2022/07/03 11:40:59;;;;;;;1.30;1.20;;;36.90;26.80;;;;;;5116681;27;20441;-49
2022/07/03 11:43:25;;;;;;;1.27;1.13;;;37.00;26.90;;;;;;5116961;27;20574;-46
2022/07/03 11:45:51;;;;;;;1.10;1.10;;;37.00;26.60;;;;;;5118276;27;20439;-46
2022/07/03 11:48:19;;;;;;;1.70;1.60;;;36.80;27.00;;;;;;5112647;27;20432;-48
2022/07/03 11:50:46;;;;;;;1.87;1.63;;;37.10;26.50;;;;;;5107464;27;20189;-45
2022/07/03 11:53:36;;;;;;;1.30;1.30;;;37.30;26.70;;;;;;5104445;27;20463;-49
2022/07/03 11:56:12;;;;;;;1.30;1.20;;;37.40;26.40;;;;;;5101258;27;20678;-48
2022/07/03 11:58:46;;;;;;;1.70;1.60;;;36.70;26.80;;;;;;5106768;28;20492;-47
2022/07/03 12:01:28;;;;;;;1.63;1.53;;;36.70;27.30;;;;;;5114321;27;20483;-45
2022/07/03 12:04:03;;;;;;;1.93;1.30;;;37.30;26.50;;;;;;5109600;28;20487;-49
2022/07/03 12:06:35;;;;;;;2.00;1.70;;;37.50;26.00;;;;;;5113317;27;20931;-50
2022/07/03 12:09:00;;;;;;;1.13;1.03;;;37.70;25.40;;;;;;5107328;27;20561;-49
2022/07/03 12:11:26;;;;;;;1.50;1.40;;;37.50;26.10;;;;;;5116791;27;20427;-46
2022/07/03 12:13:52;;;;;;;1.47;1.30;;;37.40;26.20;;;;;;5107421;28;20192;-46
2022/07/03 12:16:18;;;;;;;1.40;1.30;;;37.60;26.40;;;;;;5113619;27;21446;-46
2022/07/03 12:18:52;;;;;;;1.33;1.23;;;37.80;26.10;;;;;;5110683;28;20443;-50
2022/07/03 12:21:19;;;;;;;1.80;1.70;;;37.60;25.90;;;;;;5121209;28;20223;-46
2022/07/03 12:23:52;;;;;;;2.10;1.40;;;37.60;26.20;;;;;;5122316;28;20491;-46
2022/07/03 12:26:31;;;;;;;2.40;1.30;;;37.50;26.20;;;;;;5099347;28;21027;-49
2022/07/03 12:28:59;;;;;;;1.30;1.20;;;37.40;25.90;;;;;;5099497;28;20584;-49
2022/07/03 12:31:26;;;;;;;1.60;1.50;;;37.40;26.20;;;;;;5103381;28;20460;-47
2022/07/03 12:33:52;;;;;;;1.30;1.20;;;37.50;26.40;;;;;;5111500;28;20839;-49
2022/07/03 12:36:18;;;;;;;1.27;1.23;;;37.20;26.10;;;;;;5107733;28;20443;-50
2022/07/03 12:38:48;;;;;;;2.40;1.47;;;37.30;26.50;;;;;;5105844;28;20991;-46
2022/07/03 12:41:15;;;;;;;2.83;1.53;;;37.50;26.30;;;;;;5114363;28;20218;-49
2022/07/03 12:43:42;;;;;;;1.60;1.50;;;37.70;26.20;;;;;;5109100;28;20490;-49
2022/07/03 12:46:35;;;;;;;1.50;1.40;;;37.80;25.50;;;;;;5112547;28;20447;-50
2022/07/03 12:49:11;;;;;;;1.40;1.30;;;37.50;25.90;;;;;;5110976;28;20542;-50
2022/07/03 12:51:48;;;;;;;1.73;1.20;;;37.90;25.70;;;;;;5105839;28;20934;-49
2022/07/03 12:54:14;;;;;;;1.50;1.40;;;38.20;25.70;;;;;;5112603;28;20935;-50
2022/07/03 12:56:42;;;;;;;1.40;1.30;;;38.20;25.30;;;;;;5119618;27;20447;-50
2022/07/03 12:59:23;;;;;;;1.37;1.27;;;38.20;25.50;;;;;;5121541;27;20484;-48
2022/07/03 13:02:04;;;;;;;1.30;1.30;;;38.50;25.30;;;;;;5121811;27;20479;-46
2022/07/03 13:04:37;;;;;;;1.20;1.20;;;38.70;24.90;;;;;;5119259;27;20483;-48
2022/07/03 13:07:05;;;;;;;1.37;1.27;;;38.80;24.80;;;;;;5115370;27;20442;-45
2022/07/03 13:09:32;;;;;;;1.13;1.13;;;38.90;24.60;;;;;;5097990;27;20444;-46
2022/07/03 13:11:58;;;;;;;1.50;1.37;;;39.00;24.50;;;;;;5117665;27;20427;-47
2022/07/03 13:14:24;;;;;;;1.23;1.20;;;39.30;24.70;;;;;;5115635;27;20945;-45